sensor_id;sensor_type;location;lat;lon;timestamp;P1;durP1;ratioP1;P2;durP2;ratioP2
1460;SDS011;724;49.910;12.530;2023-05-13T00:01:40;10.60;;;10.00;;
1460;SDS011;724;49.910;12.530;2023-05-13T00:04:07;9.60;;;9.10;;
1460;SDS011;724;49.910;12.530;2023-05-13T00:06:34;10.15;;;9.65;;
1460;SDS011;724;49.910;12.530;2023-05-13T00:09:01;10.30;;;9.80;;
1460;SDS011;724;49.910;12.530;2023-05-13T00:11:29;10.18;;;9.68;;
1460;SDS011;724;49.910;12.530;2023-05-13T00:13:56;10.35;;;9.85;;
1460;SDS011;724;49.910;12.530;2023-05-13T00:16:23;10.90;;;10.30;;
1460;SDS011;724;49.910;12.530;2023-05-13T00:18:51;10.38;;;9.88;;
1460;SDS011;724;49.910;12.530;2023-05-13T00:21:18;10.32;;;9.82;;
1460;SDS011;724;49.910;12.530;2023-05-13T00:23:45;10.20;;;9.70;;
1460;SDS011;724;49.910;12.530;2023-05-13T00:26:12;9.80;;;9.30;;
1460;SDS011;724;49.910;12.530;2023-05-13T00:28:40;9.90;;;9.40;;
1460;SDS011;724;49.910;12.530;2023-05-13T00:31:07;10.00;;;9.50;;
1460;SDS011;724;49.910;12.530;2023-05-13T00:33:34;10.00;;;9.50;;
1460;SDS011;724;49.910;12.530;2023-05-13T00:36:01;9.52;;;9.02;;
1460;SDS011;724;49.910;12.530;2023-05-13T00:38:28;9.70;;;9.20;;
1460;SDS011;724;49.910;12.530;2023-05-13T00:40:55;9.25;;;8.75;;
1460;SDS011;724;49.910;12.530;2023-05-13T00:43:22;9.70;;;9.20;;
1460;SDS011;724;49.910;12.530;2023-05-13T00:45:50;9.70;;;9.20;;
1460;SDS011;724;49.910;12.530;2023-05-13T00:48:16;9.70;;;9.20;;
1460;SDS011;724;49.910;12.530;2023-05-13T00:50:43;9.70;;;9.20;;
1460;SDS011;724;49.910;12.530;2023-05-13T00:53:10;9.60;;;9.10;;
1460;SDS011;724;49.910;12.530;2023-05-13T00:55:39;9.90;;;9.40;;
1460;SDS011;724;49.910;12.530;2023-05-13T00:58:08;9.60;;;9.10;;
1460;SDS011;724;49.910;12.530;2023-05-13T01:00:36;9.50;;;9.00;;
1460;SDS011;724;49.910;12.530;2023-05-13T01:03:10;9.60;;;9.10;;
1460;SDS011;724;49.910;12.530;2023-05-13T01:05:41;9.60;;;9.10;;
1460;SDS011;724;49.910;12.530;2023-05-13T01:08:23;9.38;;;8.88;;
1460;SDS011;724;49.910;12.530;2023-05-13T01:11:00;9.52;;;9.02;;
1460;SDS011;724;49.910;12.530;2023-05-13T01:13:30;9.30;;;8.80;;
1460;SDS011;724;49.910;12.530;2023-05-13T01:16:10;9.50;;;9.00;;
1460;SDS011;724;49.910;12.530;2023-05-13T01:18:42;9.30;;;8.80;;
1460;SDS011;724;49.910;12.530;2023-05-13T01:21:11;9.57;;;9.07;;
1460;SDS011;724;49.910;12.530;2023-05-13T01:23:39;9.57;;;9.07;;
1460;SDS011;724;49.910;12.530;2023-05-13T01:26:06;10.00;;;9.50;;
1460;SDS011;724;49.910;12.530;2023-05-13T01:28:33;9.00;;;8.50;;
1460;SDS011;724;49.910;12.530;2023-05-13T01:31:00;9.00;;;8.50;;
1460;SDS011;724;49.910;12.530;2023-05-13T01:33:26;9.10;;;8.60;;
1460;SDS011;724;49.910;12.530;2023-05-13T01:35:54;9.45;;;8.95;;
1460;SDS011;724;49.910;12.530;2023-05-13T01:38:21;9.80;;;9.30;;
1460;SDS011;724;49.910;12.530;2023-05-13T01:40:51;10.00;;;9.50;;
1460;SDS011;724;49.910;12.530;2023-05-13T01:43:18;10.20;;;9.70;;
1460;SDS011;724;49.910;12.530;2023-05-13T01:45:44;10.18;;;9.68;;
1460;SDS011;724;49.910;12.530;2023-05-13T01:48:11;9.73;;;9.23;;
1460;SDS011;724;49.910;12.530;2023-05-13T01:50:38;9.40;;;8.90;;
1460;SDS011;724;49.910;12.530;2023-05-13T01:53:05;9.20;;;8.70;;
1460;SDS011;724;49.910;12.530;2023-05-13T01:55:31;9.20;;;8.70;;
1460;SDS011;724;49.910;12.530;2023-05-13T01:58:00;10.18;;;9.68;;
1460;SDS011;724;49.910;12.530;2023-05-13T02:00:27;9.85;;;9.35;;
1460;SDS011;724;49.910;12.530;2023-05-13T02:02:53;10.10;;;9.60;;
1460;SDS011;724;49.910;12.530;2023-05-13T02:05:20;9.90;;;9.40;;
1460;SDS011;724;49.910;12.530;2023-05-13T02:07:47;10.07;;;9.57;;
1460;SDS011;724;49.910;12.530;2023-05-13T02:10:14;9.80;;;9.30;;
1460;SDS011;724;49.910;12.530;2023-05-13T02:12:41;9.73;;;9.23;;
1460;SDS011;724;49.910;12.530;2023-05-13T02:15:09;9.75;;;9.25;;
1460;SDS011;724;49.910;12.530;2023-05-13T02:17:36;10.10;;;9.60;;
1460;SDS011;724;49.910;12.530;2023-05-13T02:20:03;9.00;;;8.50;;
1460;SDS011;724;49.910;12.530;2023-05-13T02:22:31;9.70;;;9.20;;
1460;SDS011;724;49.910;12.530;2023-05-13T02:24:58;9.80;;;9.30;;
1460;SDS011;724;49.910;12.530;2023-05-13T02:27:25;9.25;;;8.75;;
1460;SDS011;724;49.910;12.530;2023-05-13T02:29:51;9.68;;;9.18;;
1460;SDS011;724;49.910;12.530;2023-05-13T02:32:19;8.75;;;8.25;;
1460;SDS011;724;49.910;12.530;2023-05-13T02:34:46;9.10;;;8.60;;
1460;SDS011;724;49.910;12.530;2023-05-13T02:37:13;8.70;;;8.20;;
1460;SDS011;724;49.910;12.530;2023-05-13T02:39:40;8.10;;;7.70;;
1460;SDS011;724;49.910;12.530;2023-05-13T02:42:07;9.43;;;8.93;;
1460;SDS011;724;49.910;12.530;2023-05-13T02:44:34;9.35;;;8.85;;
1460;SDS011;724;49.910;12.530;2023-05-13T02:47:00;9.00;;;8.50;;
1460;SDS011;724;49.910;12.530;2023-05-13T02:49:28;9.20;;;8.70;;
1460;SDS011;724;49.910;12.530;2023-05-13T02:51:55;8.80;;;8.30;;
1460;SDS011;724;49.910;12.530;2023-05-13T02:54:22;9.20;;;8.70;;
1460;SDS011;724;49.910;12.530;2023-05-13T02:56:48;9.00;;;8.50;;
1460;SDS011;724;49.910;12.530;2023-05-13T02:59:15;9.27;;;8.77;;
1460;SDS011;724;49.910;12.530;2023-05-13T03:01:42;9.25;;;8.75;;
1460;SDS011;724;49.910;12.530;2023-05-13T03:04:09;8.73;;;8.23;;
1460;SDS011;724;49.910;12.530;2023-05-13T03:06:37;8.05;;;7.65;;
1460;SDS011;724;49.910;12.530;2023-05-13T03:09:03;8.50;;;8.00;;
1460;SDS011;724;49.910;12.530;2023-05-13T03:11:30;7.90;;;7.50;;
1460;SDS011;724;49.910;12.530;2023-05-13T03:13:57;8.10;;;7.70;;
1460;SDS011;724;49.910;12.530;2023-05-13T03:16:24;8.10;;;7.70;;
1460;SDS011;724;49.910;12.530;2023-05-13T03:18:51;8.20;;;7.80;;
1460;SDS011;724;49.910;12.530;2023-05-13T03:21:17;8.02;;;7.63;;
1460;SDS011;724;49.910;12.530;2023-05-13T03:23:45;8.15;;;7.75;;
1460;SDS011;724;49.910;12.530;2023-05-13T03:26:12;7.90;;;7.50;;
1460;SDS011;724;49.910;12.530;2023-05-13T03:28:39;8.25;;;7.85;;
1460;SDS011;724;49.910;12.530;2023-05-13T03:31:06;8.10;;;7.70;;
1460;SDS011;724;49.910;12.530;2023-05-13T03:33:32;7.80;;;7.40;;
1460;SDS011;724;49.910;12.530;2023-05-13T03:35:59;7.80;;;7.40;;
1460;SDS011;724;49.910;12.530;2023-05-13T03:38:26;7.80;;;7.40;;
1460;SDS011;724;49.910;12.530;2023-05-13T03:40:54;8.35;;;7.93;;
1460;SDS011;724;49.910;12.530;2023-05-13T03:43:21;8.70;;;8.20;;
1460;SDS011;724;49.910;12.530;2023-05-13T03:45:47;8.70;;;8.20;;
1460;SDS011;724;49.910;12.530;2023-05-13T03:48:15;8.20;;;7.80;;
1460;SDS011;724;49.910;12.530;2023-05-13T03:50:42;8.60;;;8.10;;
1460;SDS011;724;49.910;12.530;2023-05-13T03:53:09;8.30;;;7.90;;
1460;SDS011;724;49.910;12.530;2023-05-13T03:55:36;8.57;;;8.07;;
1460;SDS011;724;49.910;12.530;2023-05-13T03:58:10;8.70;;;8.20;;
1460;SDS011;724;49.910;12.530;2023-05-13T04:00:40;8.73;;;8.23;;
1460;SDS011;724;49.910;12.530;2023-05-13T04:03:10;8.10;;;7.70;;
1460;SDS011;724;49.910;12.530;2023-05-13T04:05:37;8.00;;;7.60;;
1460;SDS011;724;49.910;12.530;2023-05-13T04:08:04;8.18;;;7.78;;
1460;SDS011;724;49.910;12.530;2023-05-13T04:10:30;7.88;;;7.47;;
1460;SDS011;724;49.910;12.530;2023-05-13T04:12:57;7.85;;;7.45;;
1460;SDS011;724;49.910;12.530;2023-05-13T04:15:25;7.60;;;7.20;;
1460;SDS011;724;49.910;12.530;2023-05-13T04:17:52;7.60;;;7.20;;
1460;SDS011;724;49.910;12.530;2023-05-13T04:20:19;7.50;;;7.10;;
1460;SDS011;724;49.910;12.530;2023-05-13T04:22:46;7.60;;;7.20;;
1460;SDS011;724;49.910;12.530;2023-05-13T04:25:13;7.38;;;6.97;;
1460;SDS011;724;49.910;12.530;2023-05-13T04:27:40;7.47;;;7.07;;
1460;SDS011;724;49.910;12.530;2023-05-13T04:30:07;7.10;;;6.70;;
1460;SDS011;724;49.910;12.530;2023-05-13T04:32:36;7.20;;;6.80;;
1460;SDS011;724;49.910;12.530;2023-05-13T04:35:03;7.20;;;6.80;;
1460;SDS011;724;49.910;12.530;2023-05-13T04:37:30;7.10;;;6.70;;
1460;SDS011;724;49.910;12.530;2023-05-13T04:39:57;7.30;;;6.90;;
1460;SDS011;724;49.910;12.530;2023-05-13T04:42:24;7.50;;;7.10;;
1460;SDS011;724;49.910;12.530;2023-05-13T04:44:51;7.50;;;7.10;;
1460;SDS011;724;49.910;12.530;2023-05-13T04:47:17;7.30;;;6.90;;
1460;SDS011;724;49.910;12.530;2023-05-13T04:49:45;7.40;;;7.00;;
1460;SDS011;724;49.910;12.530;2023-05-13T04:52:12;7.70;;;7.30;;
1460;SDS011;724;49.910;12.530;2023-05-13T04:54:39;7.30;;;6.90;;
1460;SDS011;724;49.910;12.530;2023-05-13T04:57:06;7.10;;;6.70;;
1460;SDS011;724;49.910;12.530;2023-05-13T04:59:33;7.30;;;6.90;;
1460;SDS011;724;49.910;12.530;2023-05-13T05:02:00;6.90;;;6.50;;
1460;SDS011;724;49.910;12.530;2023-05-13T05:04:26;6.70;;;6.30;;
1460;SDS011;724;49.910;12.530;2023-05-13T05:06:54;6.60;;;6.20;;
1460;SDS011;724;49.910;12.530;2023-05-13T05:09:21;6.50;;;6.10;;
1460;SDS011;724;49.910;12.530;2023-05-13T05:11:48;6.80;;;6.40;;
1460;SDS011;724;49.910;12.530;2023-05-13T05:14:15;6.00;;;5.70;;
1460;SDS011;724;49.910;12.530;2023-05-13T05:16:41;5.00;;;4.70;;
1460;SDS011;724;49.910;12.530;2023-05-13T05:19:08;5.00;;;4.70;;
1460;SDS011;724;49.910;12.530;2023-05-13T05:21:35;5.00;;;4.70;;
1460;SDS011;724;49.910;12.530;2023-05-13T05:24:04;5.20;;;4.90;;
1460;SDS011;724;49.910;12.530;2023-05-13T05:26:31;5.43;;;5.13;;
1460;SDS011;724;49.910;12.530;2023-05-13T05:28:58;5.70;;;5.40;;
1460;SDS011;724;49.910;12.530;2023-05-13T05:31:25;6.00;;;5.70;;
1460;SDS011;724;49.910;12.530;2023-05-13T05:33:52;6.20;;;5.90;;
1460;SDS011;724;49.910;12.530;2023-05-13T05:36:20;6.50;;;6.10;;
1460;SDS011;724;49.910;12.530;2023-05-13T05:38:47;6.70;;;6.30;;
1460;SDS011;724;49.910;12.530;2023-05-13T05:41:15;7.00;;;6.60;;
1460;SDS011;724;49.910;12.530;2023-05-13T05:43:42;6.80;;;6.40;;
1460;SDS011;724;49.910;12.530;2023-05-13T05:46:09;6.70;;;6.30;;
1460;SDS011;724;49.910;12.530;2023-05-13T05:48:37;6.78;;;6.38;;
1460;SDS011;724;49.910;12.530;2023-05-13T05:51:04;6.60;;;6.20;;
1460;SDS011;724;49.910;12.530;2023-05-13T05:53:31;7.00;;;6.60;;
1460;SDS011;724;49.910;12.530;2023-05-13T05:56:01;7.00;;;6.60;;
1460;SDS011;724;49.910;12.530;2023-05-13T05:58:31;7.20;;;6.80;;
1460;SDS011;724;49.910;12.530;2023-05-13T06:00:58;6.50;;;6.10;;
1460;SDS011;724;49.910;12.530;2023-05-13T06:03:25;6.65;;;6.25;;
1460;SDS011;724;49.910;12.530;2023-05-13T06:05:53;6.43;;;6.03;;
1460;SDS011;724;49.910;12.530;2023-05-13T06:08:20;6.40;;;6.00;;
1460;SDS011;724;49.910;12.530;2023-05-13T06:10:53;6.70;;;6.30;;
1460;SDS011;724;49.910;12.530;2023-05-13T06:13:20;6.70;;;6.30;;
1460;SDS011;724;49.910;12.530;2023-05-13T06:15:49;7.20;;;6.80;;
1460;SDS011;724;49.910;12.530;2023-05-13T06:18:16;7.50;;;7.10;;
1460;SDS011;724;49.910;12.530;2023-05-13T06:20:43;7.80;;;7.40;;
1460;SDS011;724;49.910;12.530;2023-05-13T06:23:11;8.55;;;8.05;;
1460;SDS011;724;49.910;12.530;2023-05-13T06:25:39;8.50;;;8.00;;
1460;SDS011;724;49.910;12.530;2023-05-13T06:28:05;8.60;;;8.10;;
1460;SDS011;724;49.910;12.530;2023-05-13T06:30:33;9.00;;;8.50;;
1460;SDS011;724;49.910;12.530;2023-05-13T06:33:02;8.60;;;8.10;;
1460;SDS011;724;49.910;12.530;2023-05-13T06:35:29;8.80;;;8.30;;
1460;SDS011;724;49.910;12.530;2023-05-13T06:37:56;8.88;;;8.38;;
1460;SDS011;724;49.910;12.530;2023-05-13T06:40:22;8.90;;;8.40;;
1460;SDS011;724;49.910;12.530;2023-05-13T06:42:49;8.93;;;8.43;;
1460;SDS011;724;49.910;12.530;2023-05-13T06:45:16;8.00;;;7.60;;
1460;SDS011;724;49.910;12.530;2023-05-13T06:47:47;8.30;;;7.90;;
1460;SDS011;724;49.910;12.530;2023-05-13T06:50:15;8.70;;;8.20;;
1460;SDS011;724;49.910;12.530;2023-05-13T06:52:42;9.00;;;8.50;;
1460;SDS011;724;49.910;12.530;2023-05-13T06:55:09;9.00;;;8.50;;
1460;SDS011;724;49.910;12.530;2023-05-13T06:57:36;9.27;;;8.77;;
1460;SDS011;724;49.910;12.530;2023-05-13T07:00:04;9.40;;;8.90;;
1460;SDS011;724;49.910;12.530;2023-05-13T07:02:31;9.40;;;8.90;;
1460;SDS011;724;49.910;12.530;2023-05-13T07:04:58;8.93;;;8.43;;
1460;SDS011;724;49.910;12.530;2023-05-13T07:07:29;8.80;;;8.30;;
1460;SDS011;724;49.910;12.530;2023-05-13T07:09:56;9.50;;;9.00;;
1460;SDS011;724;49.910;12.530;2023-05-13T07:12:23;9.13;;;8.63;;
1460;SDS011;724;49.910;12.530;2023-05-13T07:14:53;9.20;;;8.70;;
1460;SDS011;724;49.910;12.530;2023-05-13T07:17:20;9.15;;;8.65;;
1460;SDS011;724;49.910;12.530;2023-05-13T07:19:49;9.30;;;8.80;;
1460;SDS011;724;49.910;12.530;2023-05-13T07:22:16;10.15;;;9.65;;
1460;SDS011;724;49.910;12.530;2023-05-13T07:24:46;10.15;;;9.65;;
1460;SDS011;724;49.910;12.530;2023-05-13T07:27:13;10.20;;;9.70;;
1460;SDS011;724;49.910;12.530;2023-05-13T07:29:42;10.25;;;9.75;;
1460;SDS011;724;49.910;12.530;2023-05-13T07:32:09;9.90;;;9.40;;
1460;SDS011;724;49.910;12.530;2023-05-13T07:34:36;10.80;;;10.20;;
1460;SDS011;724;49.910;12.530;2023-05-13T07:37:02;10.70;;;10.10;;
1460;SDS011;724;49.910;12.530;2023-05-13T07:39:31;10.75;;;10.15;;
1460;SDS011;724;49.910;12.530;2023-05-13T07:41:59;10.95;;;10.35;;
1460;SDS011;724;49.910;12.530;2023-05-13T07:44:26;11.15;;;10.55;;
1460;SDS011;724;49.910;12.530;2023-05-13T07:46:55;11.00;;;10.40;;
1460;SDS011;724;49.910;12.530;2023-05-13T07:49:22;11.05;;;10.45;;
1460;SDS011;724;49.910;12.530;2023-05-13T07:51:48;11.20;;;10.60;;
1460;SDS011;724;49.910;12.530;2023-05-13T07:54:17;11.50;;;10.90;;
1460;SDS011;724;49.910;12.530;2023-05-13T07:56:44;11.40;;;10.80;;
1460;SDS011;724;49.910;12.530;2023-05-13T07:59:13;11.40;;;10.80;;
1460;SDS011;724;49.910;12.530;2023-05-13T08:01:40;11.10;;;10.50;;
1460;SDS011;724;49.910;12.530;2023-05-13T08:04:07;11.20;;;10.60;;
1460;SDS011;724;49.910;12.530;2023-05-13T08:06:34;11.07;;;10.48;;
1460;SDS011;724;49.910;12.530;2023-05-13T08:09:01;11.00;;;10.40;;
1460;SDS011;724;49.910;12.530;2023-05-13T08:11:28;10.93;;;10.32;;
1460;SDS011;724;49.910;12.530;2023-05-13T08:13:55;11.00;;;10.40;;
1460;SDS011;724;49.910;12.530;2023-05-13T08:16:23;11.20;;;10.60;;
1460;SDS011;724;49.910;12.530;2023-05-13T08:18:50;11.15;;;10.55;;
1460;SDS011;724;49.910;12.530;2023-05-13T08:21:16;11.23;;;10.63;;
1460;SDS011;724;49.910;12.530;2023-05-13T08:23:43;10.90;;;10.30;;
1460;SDS011;724;49.910;12.530;2023-05-13T08:26:10;10.40;;;9.90;;
1460;SDS011;724;49.910;12.530;2023-05-13T08:28:36;10.10;;;9.60;;
1460;SDS011;724;49.910;12.530;2023-05-13T08:31:03;10.80;;;10.20;;
1460;SDS011;724;49.910;12.530;2023-05-13T08:33:31;11.20;;;10.60;;
1460;SDS011;724;49.910;12.530;2023-05-13T08:35:59;10.65;;;10.05;;
1460;SDS011;724;49.910;12.530;2023-05-13T08:38:26;11.00;;;10.40;;
1460;SDS011;724;49.910;12.530;2023-05-13T08:40:53;11.60;;;11.00;;
1460;SDS011;724;49.910;12.530;2023-05-13T08:43:20;11.40;;;10.80;;
1460;SDS011;724;49.910;12.530;2023-05-13T08:45:49;11.80;;;11.20;;
1460;SDS011;724;49.910;12.530;2023-05-13T08:48:18;12.32;;;11.73;;
1460;SDS011;724;49.910;12.530;2023-05-13T08:50:47;12.70;;;12.00;;
1460;SDS011;724;49.910;12.530;2023-05-13T08:53:15;11.95;;;11.35;;
1460;SDS011;724;49.910;12.530;2023-05-13T08:55:43;11.40;;;10.80;;
1460;SDS011;724;49.910;12.530;2023-05-13T08:58:10;11.90;;;11.30;;
1460;SDS011;724;49.910;12.530;2023-05-13T09:00:36;11.30;;;10.70;;
1460;SDS011;724;49.910;12.530;2023-05-13T09:03:04;11.10;;;10.50;;
1460;SDS011;724;49.910;12.530;2023-05-13T09:05:31;10.93;;;10.32;;
1460;SDS011;724;49.910;12.530;2023-05-13T09:07:59;10.20;;;9.70;;
1460;SDS011;724;49.910;12.530;2023-05-13T09:10:32;10.60;;;10.00;;
1460;SDS011;724;49.910;12.530;2023-05-13T09:12:59;10.70;;;10.10;;
1460;SDS011;724;49.910;12.530;2023-05-13T09:15:26;10.75;;;10.15;;
1460;SDS011;724;49.910;12.530;2023-05-13T09:17:54;10.13;;;9.63;;
1460;SDS011;724;49.910;12.530;2023-05-13T09:20:23;10.30;;;9.80;;
1460;SDS011;724;49.910;12.530;2023-05-13T09:22:51;10.10;;;9.60;;
1460;SDS011;724;49.910;12.530;2023-05-13T09:25:20;9.60;;;9.10;;
1460;SDS011;724;49.910;12.530;2023-05-13T09:27:50;9.30;;;8.80;;
1460;SDS011;724;49.910;12.530;2023-05-13T09:30:18;9.00;;;8.50;;
1460;SDS011;724;49.910;12.530;2023-05-13T09:35:30;8.80;;;8.30;;
1460;SDS011;724;49.910;12.530;2023-05-13T09:37:58;9.20;;;8.70;;
1460;SDS011;724;49.910;12.530;2023-05-13T09:40:26;9.80;;;9.30;;
1460;SDS011;724;49.910;12.530;2023-05-13T09:42:55;10.10;;;9.60;;
1460;SDS011;724;49.910;12.530;2023-05-13T09:45:25;10.65;;;10.05;;
1460;SDS011;724;49.910;12.530;2023-05-13T09:47:52;10.70;;;10.10;;
1460;SDS011;724;49.910;12.530;2023-05-13T09:50:21;10.90;;;10.30;;
1460;SDS011;724;49.910;12.530;2023-05-13T09:52:48;10.77;;;10.18;;
1460;SDS011;724;49.910;12.530;2023-05-13T09:55:15;10.07;;;9.57;;
1460;SDS011;724;49.910;12.530;2023-05-13T09:57:44;10.23;;;9.73;;
1460;SDS011;724;49.910;12.530;2023-05-13T10:00:11;9.35;;;8.85;;
1460;SDS011;724;49.910;12.530;2023-05-13T10:02:38;9.25;;;8.75;;
1460;SDS011;724;49.910;12.530;2023-05-13T10:05:06;9.70;;;9.20;;
1460;SDS011;724;49.910;12.530;2023-05-13T10:07:34;9.90;;;9.40;;
1460;SDS011;724;49.910;12.530;2023-05-13T10:10:03;10.20;;;9.70;;
1460;SDS011;724;49.910;12.530;2023-05-13T10:12:32;9.77;;;9.27;;
1460;SDS011;724;49.910;12.530;2023-05-13T10:15:03;10.25;;;9.75;;
1460;SDS011;724;49.910;12.530;2023-05-13T10:17:31;9.60;;;9.10;;
1460;SDS011;724;49.910;12.530;2023-05-13T10:19:58;9.70;;;9.20;;
1460;SDS011;724;49.910;12.530;2023-05-13T10:22:26;9.40;;;8.90;;
1460;SDS011;724;49.910;12.530;2023-05-13T10:24:55;9.70;;;9.20;;
1460;SDS011;724;49.910;12.530;2023-05-13T10:27:28;9.70;;;9.20;;
1460;SDS011;724;49.910;12.530;2023-05-13T10:29:57;9.20;;;8.70;;
1460;SDS011;724;49.910;12.530;2023-05-13T10:32:28;8.70;;;8.20;;
1460;SDS011;724;49.910;12.530;2023-05-13T10:34:56;8.50;;;8.00;;
1460;SDS011;724;49.910;12.530;2023-05-13T10:37:32;8.60;;;8.10;;
1460;SDS011;724;49.910;12.530;2023-05-13T10:40:24;8.80;;;8.30;;
1460;SDS011;724;49.910;12.530;2023-05-13T10:43:06;8.80;;;8.30;;
1460;SDS011;724;49.910;12.530;2023-05-13T10:45:35;9.23;;;8.73;;
1460;SDS011;724;49.910;12.530;2023-05-13T10:48:06;9.88;;;9.38;;
1460;SDS011;724;49.910;12.530;2023-05-13T10:50:36;10.88;;;10.27;;
1460;SDS011;724;49.910;12.530;2023-05-13T10:53:06;11.30;;;10.70;;
1460;SDS011;724;49.910;12.530;2023-05-13T10:55:38;11.00;;;10.40;;
1460;SDS011;724;49.910;12.530;2023-05-13T10:58:09;11.40;;;10.80;;
1460;SDS011;724;49.910;12.530;2023-05-13T11:00:37;10.60;;;10.00;;
1460;SDS011;724;49.910;12.530;2023-05-13T11:03:09;10.85;;;10.25;;
1460;SDS011;724;49.910;12.530;2023-05-13T11:05:57;10.10;;;9.60;;
1460;SDS011;724;49.910;12.530;2023-05-13T11:08:31;10.15;;;9.65;;
1460;SDS011;724;49.910;12.530;2023-05-13T11:11:02;10.10;;;9.60;;
1460;SDS011;724;49.910;12.530;2023-05-13T11:13:41;10.00;;;9.50;;
1460;SDS011;724;49.910;12.530;2023-05-13T11:16:09;10.30;;;9.80;;
1460;SDS011;724;49.910;12.530;2023-05-13T11:18:40;10.05;;;9.55;;
1460;SDS011;724;49.910;12.530;2023-05-13T11:21:07;9.80;;;9.30;;
1460;SDS011;724;49.910;12.530;2023-05-13T11:23:48;9.90;;;9.40;;
1460;SDS011;724;49.910;12.530;2023-05-13T11:26:16;9.80;;;9.30;;
1460;SDS011;724;49.910;12.530;2023-05-13T11:31:40;10.00;;;9.50;;
1460;SDS011;724;49.910;12.530;2023-05-13T11:34:11;9.60;;;9.10;;
1460;SDS011;724;49.910;12.530;2023-05-13T11:36:39;9.70;;;9.20;;
1460;SDS011;724;49.910;12.530;2023-05-13T11:39:09;9.95;;;9.45;;
1460;SDS011;724;49.910;12.530;2023-05-13T11:41:41;10.20;;;9.70;;
1460;SDS011;724;49.910;12.530;2023-05-13T11:44:10;10.00;;;9.50;;
1460;SDS011;724;49.910;12.530;2023-05-13T11:46:47;9.60;;;9.10;;
1460;SDS011;724;49.910;12.530;2023-05-13T11:49:31;10.30;;;9.80;;
1460;SDS011;724;49.910;12.530;2023-05-13T11:51:58;9.50;;;9.00;;
1460;SDS011;724;49.910;12.530;2023-05-13T11:54:25;9.70;;;9.20;;
1460;SDS011;724;49.910;12.530;2023-05-13T11:56:52;9.35;;;8.85;;
1460;SDS011;724;49.910;12.530;2023-05-13T11:59:19;9.50;;;9.00;;
1460;SDS011;724;49.910;12.530;2023-05-13T12:01:56;9.70;;;9.20;;
1460;SDS011;724;49.910;12.530;2023-05-13T12:04:25;9.82;;;9.32;;
1460;SDS011;724;49.910;12.530;2023-05-13T12:06:54;10.60;;;10.00;;
1460;SDS011;724;49.910;12.530;2023-05-13T12:09:22;10.80;;;10.20;;
1460;SDS011;724;49.910;12.530;2023-05-13T12:11:49;10.60;;;10.00;;
1460;SDS011;724;49.910;12.530;2023-05-13T12:14:17;10.70;;;10.10;;
1460;SDS011;724;49.910;12.530;2023-05-13T12:16:45;10.80;;;10.20;;
1460;SDS011;724;49.910;12.530;2023-05-13T12:19:13;11.30;;;10.70;;
1460;SDS011;724;49.910;12.530;2023-05-13T12:21:39;11.20;;;10.60;;
1460;SDS011;724;49.910;12.530;2023-05-13T12:27:02;10.40;;;9.90;;
1460;SDS011;724;49.910;12.530;2023-05-13T12:29:37;10.15;;;9.65;;
1460;SDS011;724;49.910;12.530;2023-05-13T12:32:05;10.00;;;9.50;;
1460;SDS011;724;49.910;12.530;2023-05-13T12:34:32;10.07;;;9.57;;
1460;SDS011;724;49.910;12.530;2023-05-13T12:37:09;10.60;;;10.00;;
1460;SDS011;724;49.910;12.530;2023-05-13T12:39:38;10.68;;;10.07;;
1460;SDS011;724;49.910;12.530;2023-05-13T12:42:14;11.30;;;10.70;;
1460;SDS011;724;49.910;12.530;2023-05-13T12:44:42;11.70;;;11.10;;
1460;SDS011;724;49.910;12.530;2023-05-13T12:47:09;11.93;;;11.32;;
1460;SDS011;724;49.910;12.530;2023-05-13T12:49:49;11.50;;;10.90;;
1460;SDS011;724;49.910;12.530;2023-05-13T12:52:17;10.95;;;10.35;;
1460;SDS011;724;49.910;12.530;2023-05-13T12:54:46;11.10;;;10.50;;
1460;SDS011;724;49.910;12.530;2023-05-13T12:57:14;10.70;;;10.10;;
1460;SDS011;724;49.910;12.530;2023-05-13T12:59:42;11.00;;;10.40;;
1460;SDS011;724;49.910;12.530;2023-05-13T13:02:10;11.32;;;10.73;;
1460;SDS011;724;49.910;12.530;2023-05-13T13:04:37;10.70;;;10.10;;
1460;SDS011;724;49.910;12.530;2023-05-13T13:07:04;11.00;;;10.40;;
1460;SDS011;724;49.910;12.530;2023-05-13T13:09:32;11.60;;;11.00;;
1460;SDS011;724;49.910;12.530;2023-05-13T13:12:01;11.70;;;11.10;;
1460;SDS011;724;49.910;12.530;2023-05-13T13:14:27;11.57;;;10.98;;
1460;SDS011;724;49.910;12.530;2023-05-13T13:16:54;12.00;;;11.40;;
1460;SDS011;724;49.910;12.530;2023-05-13T13:19:21;12.30;;;11.70;;
1460;SDS011;724;49.910;12.530;2023-05-13T13:21:47;12.05;;;11.45;;
1460;SDS011;724;49.910;12.530;2023-05-13T13:24:14;11.82;;;11.23;;
1460;SDS011;724;49.910;12.530;2023-05-13T13:26:41;11.60;;;11.00;;
1460;SDS011;724;49.910;12.530;2023-05-13T13:29:09;11.70;;;11.10;;
1460;SDS011;724;49.910;12.530;2023-05-13T13:31:36;11.43;;;10.82;;
1460;SDS011;724;49.910;12.530;2023-05-13T13:34:03;11.32;;;10.73;;
1460;SDS011;724;49.910;12.530;2023-05-13T13:36:30;11.85;;;11.25;;
1460;SDS011;724;49.910;12.530;2023-05-13T13:38:56;10.80;;;10.20;;
1460;SDS011;724;49.910;12.530;2023-05-13T13:41:23;10.98;;;10.38;;
1460;SDS011;724;49.910;12.530;2023-05-13T13:43:50;10.70;;;10.10;;
1460;SDS011;724;49.910;12.530;2023-05-13T13:46:18;10.65;;;10.05;;
1460;SDS011;724;49.910;12.530;2023-05-13T13:48:45;10.40;;;9.90;;
1460;SDS011;724;49.910;12.530;2023-05-13T13:51:11;10.00;;;9.50;;
1460;SDS011;724;49.910;12.530;2023-05-13T13:53:38;10.20;;;9.70;;
1460;SDS011;724;49.910;12.530;2023-05-13T13:56:05;10.10;;;9.60;;
1460;SDS011;724;49.910;12.530;2023-05-13T13:58:32;10.10;;;9.60;;
1460;SDS011;724;49.910;12.530;2023-05-13T14:00:59;9.82;;;9.32;;
1460;SDS011;724;49.910;12.530;2023-05-13T14:03:27;9.85;;;9.35;;
1460;SDS011;724;49.910;12.530;2023-05-13T14:05:54;8.93;;;8.43;;
1460;SDS011;724;49.910;12.530;2023-05-13T14:08:20;8.60;;;8.10;;
1460;SDS011;724;49.910;12.530;2023-05-13T14:10:47;8.50;;;8.00;;
1460;SDS011;724;49.910;12.530;2023-05-13T14:13:16;8.65;;;8.15;;
1460;SDS011;724;49.910;12.530;2023-05-13T14:15:43;8.70;;;8.20;;
1460;SDS011;724;49.910;12.530;2023-05-13T14:18:09;9.02;;;8.52;;
1460;SDS011;724;49.910;12.530;2023-05-13T14:20:37;8.88;;;8.38;;
1460;SDS011;724;49.910;12.530;2023-05-13T14:23:04;8.20;;;7.80;;
1460;SDS011;724;49.910;12.530;2023-05-13T14:25:31;9.00;;;8.50;;
1460;SDS011;724;49.910;12.530;2023-05-13T14:27:58;9.40;;;8.90;;
1460;SDS011;724;49.910;12.530;2023-05-13T14:30:24;9.25;;;8.75;;
1460;SDS011;724;49.910;12.530;2023-05-13T14:32:51;8.90;;;8.40;;
1460;SDS011;724;49.910;12.530;2023-05-13T14:35:18;8.90;;;8.40;;
1460;SDS011;724;49.910;12.530;2023-05-13T14:37:46;8.90;;;8.40;;
1460;SDS011;724;49.910;12.530;2023-05-13T14:40:13;9.30;;;8.80;;
1460;SDS011;724;49.910;12.530;2023-05-13T14:42:40;9.30;;;8.80;;
1460;SDS011;724;49.910;12.530;2023-05-13T14:45:07;9.32;;;8.82;;
1460;SDS011;724;49.910;12.530;2023-05-13T14:47:34;9.48;;;8.98;;
1460;SDS011;724;49.910;12.530;2023-05-13T14:50:01;9.10;;;8.60;;
1460;SDS011;724;49.910;12.530;2023-05-13T14:52:31;9.70;;;9.20;;
1460;SDS011;724;49.910;12.530;2023-05-13T14:54:59;9.43;;;8.93;;
1460;SDS011;724;49.910;12.530;2023-05-13T14:57:25;9.52;;;9.02;;
1460;SDS011;724;49.910;12.530;2023-05-13T14:59:52;9.13;;;8.63;;
1460;SDS011;724;49.910;12.530;2023-05-13T15:02:19;9.40;;;8.90;;
1460;SDS011;724;49.910;12.530;2023-05-13T15:04:46;9.20;;;8.70;;
1460;SDS011;724;49.910;12.530;2023-05-13T15:07:12;9.30;;;8.80;;
1460;SDS011;724;49.910;12.530;2023-05-13T15:09:39;8.85;;;8.35;;
1460;SDS011;724;49.910;12.530;2023-05-13T15:12:08;9.10;;;8.60;;
1460;SDS011;724;49.910;12.530;2023-05-13T15:14:35;9.00;;;8.50;;
1460;SDS011;724;49.910;12.530;2023-05-13T15:17:01;9.30;;;8.80;;
1460;SDS011;724;49.910;12.530;2023-05-13T15:19:29;9.40;;;8.90;;
1460;SDS011;724;49.910;12.530;2023-05-13T15:21:56;9.50;;;9.00;;